This is the latest recevied weather packets stored in our database for station/object KK7ISX. If no packets are shown the sender has not sent any weather packets the latest 10 day(s).
| Time | Temp. | Humidity | Pressure | Rain* | Wind** | Luminosity | Snow |
|---|---|---|---|---|---|---|---|
| 1777819183 | 13.89° C | 57% | 1014.9 hPa | 0 mm | - | 55 W/m² | - |
| 1777818575 | 13.33° C | 58% | 1014.6 hPa | 0 mm | - | 51 W/m² | - |
| 1777817055 | 11.67° C | 64% | 1014.7 hPa | 0 mm | - | 44 W/m² | - |
| 1777815540 | 8.33° C | 72% | 1014.6 hPa | 0 mm | - | 62 W/m² | - |
| 1777814630 | 8.89° C | 72% | 1014.5 hPa | 0 mm | - | 41 W/m² | - |
| 1777811300 | 6.67° C | 80% | 1013.9 hPa | 0 mm | - | 1 W/m² | - |
| 1777807059 | 7.78° C | 77% | 1014.3 hPa | 0 mm | - | 0 W/m² | - |
| 1777806757 | 7.78° C | 75% | 1014.1 hPa | 0 mm | - | 0 W/m² | - |
| 1777806452 | 7.78° C | 76% | 1014.2 hPa | 0 mm | - | 0 W/m² | - |
| 1777805538 | 7.78° C | 75% | 1014.3 hPa | 0 mm | - | 0 W/m² | - |
| 1777804630 | 7.78° C | 75% | 1014.2 hPa | 0 mm | - | 0 W/m² | - |
| 1777804329 | 8.33° C | 75% | 1014.1 hPa | 0 mm | - | 0 W/m² | - |
| 1777804025 | 8.33° C | 74% | 1013.9 hPa | 0 mm | - | 0 W/m² | - |
| 1777803722 | 8.33° C | 74% | 1013.9 hPa | 0 mm | - | 0 W/m² | - |
| 1777803417 | 8.33° C | 73% | 1014.1 hPa | 0 mm | - | 0 W/m² | - |
| 1777803115 | 8.33° C | 74% | 1014.1 hPa | 0 mm | - | 0 W/m² | - |
| 1777802812 | 8.33° C | 75% | 1013.9 hPa | 0 mm | - | 0 W/m² | - |
| 1777802510 | 8.33° C | 75% | 1013.9 hPa | 0 mm | - | 0 W/m² | - |
| 1777801906 | 8.89° C | 75% | 1014.1 hPa | 0 mm | - | 0 W/m² | - |
| 1777801300 | 8.89° C | 76% | 1013.9 hPa | 0 mm | - | 0 W/m² | - |
| 1777800996 | 8.89° C | 75% | 1013.8 hPa | 0 mm | - | 0 W/m² | - |
| 1777800693 | 9.44° C | 72% | 1014.2 hPa | 0 mm | - | 0 W/m² | - |
| 1777800388 | 9.44° C | 71% | 1014.1 hPa | 0 mm | - | 0 W/m² | - |
| 1777800085 | 9.44° C | 72% | 1013.8 hPa | 0 mm | - | 0 W/m² | - |
| 1777799780 | 9.44° C | 74% | 1014.1 hPa | 0 mm | - | 0 W/m² | - |
* Rain latest hour (hover to see other rain measurements)
** Current wind speed in m/s (hover to see current wind gust speed)